Golden, MS (38847)

8:30 PM CDT on July 23, 2016 (GMT -0500)
Country | | Change Station

Elev 482 ft 34.52 °N, 88.19 °W | Updated 3 minutes ago

Clear
Clear
74.8 °F
Feels Like 73 °F
N
0.0
Wind Variable Wind from WSW

Today
High -- | Low -- °F
--% Chance of Precip.
Yesterday
High -- | Low -- °F
Precip. -- in
Pressure 30.04 in
Visibility 7.0 miles
Clouds Clear
Heat Index 73 °F
Dew Point 73 °F
Humidity 95%
Rainfall 0.00 in
Snow Depth Not available.
5:57 AM 8:00 PM
Waning Gibbous, 81% visible
METAR K1M4 240056Z AUTO 12004G15KT 7SM CLR 27/23 A3003 RMK AO2 SLP173 T02720228 TSNO
Pressure 30.04 in
Visibility 7.0 miles
Clouds Clear
Heat Index 73 °F
Dew Point 73 °F
Humidity 95%
Rainfall 0.00 in
Snow Depth Not available.
5:57 AM 8:00 PM
Waning Gibbous, 81% visible
METAR K1M4 240056Z AUTO 12004G15KT 7SM CLR 27/23 A3003 RMK AO2 SLP173 T02720228 TSNO

10-Day Weather Forecast

Almanac

Astronomy

Jul. 23, 2016 Rise Set
Actual Time
Civil Twilight
Nautical Twilight
Astronomical Twilight
Moon
Length of Visible Light
Length of Day
Tomorrow will be .
, % of the Moon is Illuminated

Today's Extremes

State Highs State Lows

Community

WunderPhotos

Upload Photos

1,926,993 photos uploaded!

WunderBlog® & News

Nearby

Air Quality

  Air Quality AQ Index Pollutant
Not available.

Snow Depth

Station Depth Elevation

Earthquake Activity

City Distance Mag. Time & Date
Minimum magnitude displayed is 2.5.

Coastal Water Temperatures

Place Temperature

Stations

Nearby Weather Stations

Station Location Temp. Windchill Dew Point Humidity Wind Precip. Elev Updated Type
                   

Watches & Warnings

There are currently no watches in effect.